Impacts METAR Board
IDs:

KCXO - Conroe/Executive Arp, TX, US

Updated at: 0800 UTC 13 Aug 2022
Potential Impact None Slight Moderate High
Time 12/20Z 12/21Z 12/22Z 12/23Z 13/00Z 13/01Z 13/02Z 13/03Z 13/04Z 13/05Z 13/06Z 13/07Z 13/08Z
Temp87 87 85 92 88 86 81 80 78 77 77 77 75
Dewpt71 73 73 74 73 76 77 76 76 76 76 75 74
Altim29.96 29.95 29.94 29.93 29.93 29.93 29.94 29.96 29.98 29.98 29.97 29.98 29.98
VIS10 10 10 10 10 10 10 10 10 10 10 10 10
CIG85 100 90 -- -- -- -- -- -- -- -- 49 --
CoverBKNBKNBKNCLRCLRCLRCLRFEWCLRFEWFEWBKNSCT
FltCatVFRVFRVFRVFRVFRVFRVFRVFRVFRVFRVFRVFRVFR
WX--TS-RA--------------------
WDir110120110014000000000
WSpd4 10 6 5 3 0 0 0 0 0 0 0 0
WGst-- -- 16 -- -- -- -- -- -- -- -- -- --
Raw hourly METARs
KCXO 121953Z 11004KT 10SM FEW035 SCT070 BKN085 31/22 A2996 RMK AO2 RAB32E51 SLP140 P0000 T03060217
KCXO 122101Z 12010KT 10SM TS FEW060 BKN100 31/23 A2995 RMK AO2 TSB2055 T03060228
KCXO 122153Z 11006G16KT 10SM -RA FEW042 SCT070 BKN090 29/23 A2994 RMK AO2 RAB47 TSB2055E13 SLP134 P0000 T02940228
KCXO 122253Z VRB05KT 10SM CLR 33/23 A2993 RMK AO2 LTG DSNT W RAE2159 SLP132 P0000 T03330233
KCXO 122353Z 14003KT 10SM CLR 31/23 A2993 RMK AO2 SLP132 60000 T03110228 10356 20294 55004
KCXO 130053Z 00000KT 10SM CLR 30/24 A2993 RMK AO2 SLP130 T03000244
KCXO 130153Z AUTO 00000KT 10SM CLR 27/25 A2994 RMK AO2 SLP133 T02720250
KCXO 130253Z AUTO 00000KT 10SM FEW050 27/24 A2996 RMK AO2 SLP142 T02670244 53009
KCXO 130353Z AUTO 00000KT 10SM CLR 26/24 A2998 RMK AO2 SLP148 T02560244
KCXO 130453Z AUTO 00000KT 10SM FEW050 25/24 A2998 RMK AO2 SLP148 T02500244
KCXO 130553Z AUTO 00000KT 10SM FEW050 25/24 A2997 RMK AO2 SLP145 T02500244 10311 20244 403560228 50003
KCXO 130653Z AUTO 00000KT 10SM BKN049 25/24 A2998 RMK AO2 SLP146 T02500239
KCXO 130753Z AUTO 00000KT 10SM SCT049 24/23 A2998 RMK AO2 SLP148 T02390233



Page loaded:  08:23 UTC  |   01:23 AM Pacific  |   02:23 AM Mountain  |   03:23 AM Central  |   04:23 AM Eastern

 

ADVISORIES

FORECASTS

FORECASTS

OBSERVATIONS

USER TOOLS

ABOUT US